Time;durP1;ratioP1;P1;durP2;ratioP2;P2;SDS_P1;SDS_P2;PMS_P1;PMS_P2;Temp;Humidity;BMP_temperature;BMP_pressure;BME280_temperature;BME280_humidity;BME280_pressure;Samples;Min_cycle;Max_cycle;Signal;HPM_P1;HPM_P2
2022/08/24 00:01:00;;;;;;;35.08;31.58;;;20.40;99.90;;;;;;5071324;28;20128;-72
2022/08/24 00:03:25;;;;;;;34.63;30.88;;;20.30;99.90;;;;;;5072557;28;20123;-72
2022/08/24 00:05:52;;;;;;;33.58;30.23;;;20.30;99.90;;;;;;5072091;28;20041;-72
2022/08/24 00:08:19;;;;;;;35.95;31.92;;;20.40;99.90;;;;;;5070923;28;20049;-72
2022/08/24 00:10:45;;;;;;;37.03;33.38;;;20.30;99.90;;;;;;5072575;28;20087;-72
2022/08/24 00:13:12;;;;;;;39.67;35.00;;;20.30;99.90;;;;;;5071800;28;20044;-73
2022/08/24 00:15:38;;;;;;;38.70;34.85;;;20.20;99.90;;;;;;5072312;28;20118;-72
2022/08/24 00:18:04;;;;;;;33.88;30.48;;;20.20;99.90;;;;;;5073092;28;20457;-76
2022/08/24 00:20:30;;;;;;;35.60;32.03;;;20.20;99.90;;;;;;5071202;28;20558;-75
2022/08/24 00:22:56;;;;;;;37.17;33.33;;;20.50;99.90;;;;;;5072305;28;20098;-72
2022/08/24 00:25:22;;;;;;;35.97;32.10;;;20.00;99.90;;;;;;5071771;28;20036;-73
2022/08/24 00:27:48;;;;;;;32.90;29.63;;;20.20;99.90;;;;;;5064326;28;20093;-72
2022/08/24 00:30:17;;;;;;;35.67;32.22;;;20.00;99.90;;;;;;5070608;28;20036;-72
2022/08/24 00:32:45;;;;;;;35.22;31.65;;;19.90;99.90;;;;;;5072826;28;20055;-74
2022/08/24 00:35:17;;;;;;;32.28;29.17;;;19.80;99.90;;;;;;5072600;28;20345;-72
2022/08/24 00:37:44;;;;;;;33.83;30.33;;;19.70;99.90;;;;;;5071976;28;20086;-74
2022/08/24 00:40:23;;;;;;;32.70;29.48;;;19.70;99.90;;;;;;5071079;28;20044;-75
2022/08/24 00:42:50;;;;;;;31.48;28.48;;;19.60;99.90;;;;;;5064267;28;20048;-76
2022/08/24 00:45:17;;;;;;;30.58;27.65;;;19.50;99.90;;;;;;5072036;28;20090;-76
2022/08/24 00:48:00;;;;;;;30.45;27.65;;;19.50;99.90;;;;;;5071117;28;20045;-73
2022/08/24 00:50:37;;;;;;;32.40;29.20;;;19.60;99.90;;;;;;5071226;28;20049;-74
2022/08/24 00:53:09;;;;;;;30.63;27.77;;;19.60;99.90;;;;;;5071091;28;20120;-74
2022/08/24 00:55:47;;;;;;;31.52;28.63;;;19.60;99.90;;;;;;5053832;28;20100;-74
2022/08/24 00:58:19;;;;;;;29.30;26.55;;;19.60;99.90;;;;;;5071739;28;20048;-75
2022/08/24 01:00:49;;;;;;;29.80;26.90;;;19.60;99.90;;;;;;5071801;28;20335;-74
2022/08/24 01:03:16;;;;;;;31.40;27.85;;;19.60;99.90;;;;;;5070848;28;20032;-75
2022/08/24 01:05:43;;;;;;;32.35;29.25;;;19.60;99.90;;;;;;5071107;28;20455;-76
2022/08/24 01:08:10;;;;;;;30.92;27.83;;;19.50;99.90;;;;;;5070596;28;20561;-73
2022/08/24 01:10:49;;;;;;;31.58;28.52;;;19.50;99.90;;;;;;5071418;28;20052;-73
2022/08/24 01:13:15;;;;;;;31.27;27.88;;;19.40;99.90;;;;;;5071532;28;20115;-75
2022/08/24 01:15:45;;;;;;;32.28;29.08;;;19.40;99.90;;;;;;5072609;28;20045;-73
2022/08/24 01:21:10;;;;;;;29.88;27.00;;;19.40;99.90;;;;;;5064389;28;20484;-73
2022/08/24 01:23:43;;;;;;;30.17;27.33;;;19.40;99.90;;;;;;5071401;28;20548;-72
2022/08/24 01:26:29;;;;;;;29.83;26.90;;;19.40;99.90;;;;;;5069236;28;20032;-72
2022/08/24 01:28:59;;;;;;;31.27;28.13;;;19.40;99.90;;;;;;5063341;28;20059;-73
2022/08/24 01:31:25;;;;;;;29.92;26.75;;;19.70;99.90;;;;;;5070848;28;20041;-73
2022/08/24 01:33:52;;;;;;;28.40;25.58;;;19.40;99.90;;;;;;5070744;28;20045;-72
2022/08/24 01:36:38;;;;;;;32.33;29.23;;;19.40;99.90;;;;;;5071326;28;20049;-72
2022/08/24 01:39:26;;;;;;;34.00;30.75;;;19.40;99.90;;;;;;5063344;28;20037;-72
2022/08/24 01:41:52;;;;;;;34.35;30.73;;;19.40;99.90;;;;;;5063921;28;20056;-74
2022/08/24 01:44:20;;;;;;;31.77;28.70;;;19.30;99.90;;;;;;5070342;28;20037;-72
2022/08/24 01:46:48;;;;;;;30.27;27.35;;;19.70;99.90;;;;;;5070150;28;20416;-72
2022/08/24 01:49:15;;;;;;;31.85;28.85;;;19.20;99.90;;;;;;5070752;28;20515;-72
2022/08/24 01:51:42;;;;;;;31.83;28.90;;;19.20;99.90;;;;;;5071036;28;20041;-73
2022/08/24 01:54:08;;;;;;;29.60;26.70;;;19.20;99.90;;;;;;5069107;28;20543;-72
2022/08/24 01:56:35;;;;;;;31.80;28.83;;;19.20;99.90;;;;;;5069403;28;20036;-72
2022/08/24 01:59:01;;;;;;;31.70;28.55;;;20.10;99.90;;;;;;5069699;28;20083;-74
2022/08/24 02:01:30;;;;;;;31.83;28.55;;;19.10;99.90;;;;;;5070323;28;20495;-76
2022/08/24 02:03:58;;;;;;;34.35;30.75;;;20.30;99.90;;;;;;5062998;28;20041;-73
2022/08/24 02:06:26;;;;;;;33.40;30.17;;;19.10;99.90;;;;;;5070711;28;20043;-74
2022/08/24 02:08:51;;;;;;;32.42;29.45;;;19.10;99.90;;;;;;5069894;28;20055;-72
2022/08/24 02:11:17;;;;;;;31.10;27.95;;;19.30;99.90;;;;;;5070346;28;20419;-73
2022/08/24 02:13:43;;;;;;;31.65;28.65;;;19.10;99.90;;;;;;5069599;28;20123;-72
2022/08/24 02:16:09;;;;;;;31.38;28.48;;;19.10;99.90;;;;;;5070418;28;20463;-73
2022/08/24 02:18:36;;;;;;;32.25;28.98;;;19.30;99.90;;;;;;5070755;28;20033;-73
2022/08/24 02:21:02;;;;;;;35.17;31.67;;;19.10;99.90;;;;;;5070781;28;20063;-72
2022/08/24 02:23:28;;;;;;;33.67;30.67;;;19.00;99.90;;;;;;5068780;28;20442;-72
2022/08/24 02:25:55;;;;;;;31.52;28.45;;;19.90;99.90;;;;;;5070554;28;20494;-72
2022/08/24 02:28:21;;;;;;;32.67;29.60;;;19.60;99.90;;;;;;5070306;28;20131;-72
2022/08/24 02:30:47;;;;;;;31.75;28.95;;;19.20;99.90;;;;;;5069778;28;20046;-72
2022/08/24 02:33:13;;;;;;;30.35;27.45;;;18.90;99.90;;;;;;5069445;28;20040;-73
2022/08/24 02:35:40;;;;;;;33.25;30.05;;;18.90;99.90;;;;;;5069482;28;20043;-73
2022/08/24 02:38:07;;;;;;;32.55;29.33;;;19.20;99.90;;;;;;5069915;28;20075;-74
2022/08/24 02:40:33;;;;;;;34.38;31.08;;;19.60;99.90;;;;;;5069853;28;20040;-75
2022/08/24 02:42:59;;;;;;;33.83;30.52;;;18.70;99.90;;;;;;5068876;28;20143;-75
2022/08/24 02:45:24;;;;;;;29.48;26.52;;;18.70;99.90;;;;;;5052418;28;20090;-74
2022/08/24 02:47:50;;;;;;;29.55;26.58;;;18.60;99.90;;;;;;5070525;28;20056;-75
2022/08/24 02:50:17;;;;;;;29.20;26.40;;;18.70;99.90;;;;;;5069202;28;20037;-74
2022/08/24 02:52:43;;;;;;;27.52;25.02;;;18.70;99.90;;;;;;5070301;28;20462;-72
2022/08/24 02:55:14;;;;;;;27.85;25.17;;;18.70;99.90;;;;;;5069839;28;20451;-76
2022/08/24 02:57:40;;;;;;;27.90;25.30;;;18.80;99.90;;;;;;5069694;28;20040;-74
2022/08/24 03:00:10;;;;;;;29.70;27.02;;;18.80;99.90;;;;;;5070019;28;20033;-74
2022/08/24 03:02:35;;;;;;;28.75;26.15;;;18.70;99.90;;;;;;5070173;28;20044;-75
2022/08/24 03:05:02;;;;;;;27.98;25.23;;;19.70;99.90;;;;;;5069676;28;20442;-72
2022/08/24 03:07:28;;;;;;;28.95;26.08;;;18.50;99.90;;;;;;5070108;28;20090;-74
2022/08/24 03:09:53;;;;;;;29.02;26.23;;;18.50;99.90;;;;;;5069956;28;20048;-73
2022/08/24 03:12:19;;;;;;;28.25;25.52;;;18.50;99.90;;;;;;5073795;28;20480;-76
2022/08/24 03:14:45;;;;;;;29.55;26.75;;;18.50;99.90;;;;;;5074029;28;20036;-76
2022/08/24 03:17:13;;;;;;;29.02;26.45;;;18.50;99.90;;;;;;5073967;28;20177;-76
2022/08/24 03:19:39;;;;;;;26.13;23.83;;;18.40;99.90;;;;;;5073097;28;20036;-75
2022/08/24 03:22:05;;;;;;;28.27;25.50;;;18.40;99.90;;;;;;5073927;28;20036;-75
2022/08/24 03:24:30;;;;;;;27.88;25.48;;;18.70;99.90;;;;;;5075253;28;20037;-73
2022/08/24 03:26:56;;;;;;;27.98;25.38;;;18.50;99.90;;;;;;5073955;28;20450;-75
2022/08/24 03:29:22;;;;;;;27.10;24.52;;;19.10;99.90;;;;;;5071971;28;20048;-76
2022/08/24 03:31:50;;;;;;;27.30;24.83;;;18.80;99.90;;;;;;5074048;28;20053;-75
2022/08/24 03:34:16;;;;;;;27.30;24.75;;;18.50;99.90;;;;;;5073628;28;20485;-74
2022/08/24 03:36:45;;;;;;;31.00;28.02;;;18.50;99.90;;;;;;5073926;28;20093;-72
2022/08/24 03:39:12;;;;;;;30.02;27.20;;;18.50;99.90;;;;;;5072195;28;20041;-72
2022/08/24 03:41:38;;;;;;;28.17;25.45;;;18.40;99.90;;;;;;5073776;28;20041;-74
2022/08/24 03:44:04;;;;;;;26.90;24.58;;;18.40;99.90;;;;;;5074138;28;20110;-74
2022/08/24 03:46:35;;;;;;;25.80;23.40;;;18.00;99.90;;;;;;5073009;28;20052;-73
2022/08/24 03:49:03;;;;;;;28.25;25.45;;;18.40;99.90;;;;;;5073368;28;20040;-73
2022/08/24 03:51:29;;;;;;;27.58;24.90;;;18.40;99.90;;;;;;5073635;28;20054;-72
2022/08/24 03:53:57;;;;;;;26.40;23.83;;;18.30;99.90;;;;;;5072828;28;20044;-72
2022/08/24 03:56:23;;;;;;;28.90;26.20;;;18.40;99.90;;;;;;5073715;28;20579;-75
2022/08/24 03:58:49;;;;;;;25.42;23.10;;;18.70;99.90;;;;;;5073913;28;20484;-74
2022/08/24 04:01:16;;;;;;;26.13;23.50;;;18.60;99.90;;;;;;5071355;28;20119;-75
2022/08/24 04:03:44;;;;;;;25.20;22.95;;;18.10;99.90;;;;;;5073492;28;20036;-75
2022/08/24 04:06:11;;;;;;;27.80;25.13;;;18.20;99.90;;;;;;5073299;28;20372;-74
2022/08/24 04:08:37;;;;;;;26.85;24.35;;;19.40;99.90;;;;;;5072502;28;20049;-73
2022/08/24 04:11:03;;;;;;;26.85;24.27;;;18.20;99.90;;;;;;5072960;28;20040;-72
2022/08/24 04:13:30;;;;;;;27.48;24.88;;;18.20;99.90;;;;;;5073581;28;20400;-73
2022/08/24 04:15:57;;;;;;;23.70;21.67;;;18.10;99.90;;;;;;5072600;28;20041;-72
2022/08/24 04:18:23;;;;;;;25.58;23.38;;;18.10;99.90;;;;;;5073227;28;20048;-73
2022/08/24 04:20:49;;;;;;;23.52;21.30;;;18.10;99.90;;;;;;5072543;28;20404;-74
2022/08/24 04:23:16;;;;;;;25.27;22.92;;;18.70;99.90;;;;;;5071246;28;20037;-72
2022/08/24 04:25:44;;;;;;;25.60;23.33;;;19.00;99.90;;;;;;5072943;28;20048;-72
2022/08/24 04:28:11;;;;;;;26.00;23.60;;;18.20;99.90;;;;;;5071223;28;20424;-72
2022/08/24 04:30:42;;;;;;;26.10;23.80;;;18.10;99.90;;;;;;5072145;28;20455;-72
2022/08/24 04:33:09;;;;;;;27.35;24.70;;;18.10;99.90;;;;;;5065027;28;20120;-74
2022/08/24 04:35:40;;;;;;;28.00;25.23;;;18.10;99.90;;;;;;5072320;28;20047;-73
2022/08/24 04:38:07;;;;;;;25.38;23.08;;;18.00;99.90;;;;;;5064431;28;20048;-72
2022/08/24 04:40:33;;;;;;;24.80;22.52;;;18.00;99.90;;;;;;5071316;28;20047;-72
2022/08/24 04:42:59;;;;;;;25.25;22.73;;;18.00;99.90;;;;;;5072318;28;20037;-74
2022/08/24 04:45:27;;;;;;;24.45;22.15;;;18.80;99.90;;;;;;5071328;28;20040;-73
2022/08/24 04:47:52;;;;;;;23.75;21.67;;;18.10;99.90;;;;;;5071367;28;20114;-72
2022/08/24 04:50:18;;;;;;;24.35;21.98;;;18.90;99.90;;;;;;5072093;28;20435;-72
2022/08/24 04:52:44;;;;;;;24.67;22.27;;;18.60;99.90;;;;;;5072463;28;20080;-72
2022/08/24 04:55:09;;;;;;;26.23;23.92;;;18.40;99.90;;;;;;5071075;28;20115;-73
2022/08/24 04:57:35;;;;;;;22.95;20.95;;;19.00;99.90;;;;;;5071754;28;20078;-74
2022/08/24 05:00:02;;;;;;;24.27;22.00;;;18.00;99.90;;;;;;5072096;28;20048;-73
2022/08/24 05:02:27;;;;;;;23.45;21.15;;;18.00;99.90;;;;;;5072534;28;20041;-74
2022/08/24 05:04:56;;;;;;;21.05;19.25;;;18.10;99.90;;;;;;5071634;28;20171;-75
2022/08/24 05:07:22;;;;;;;23.20;21.00;;;18.00;99.90;;;;;;5070761;28;20052;-75
2022/08/24 05:09:48;;;;;;;24.60;22.30;;;18.00;99.90;;;;;;5071493;28;20048;-73
2022/08/24 05:12:14;;;;;;;24.30;22.00;;;17.30;99.90;;;;;;5053862;28;20040;-74
2022/08/24 05:14:39;;;;;;;26.00;21.65;;;18.40;99.90;;;;;;5070831;28;20052;-73
2022/08/24 05:17:05;;;;;;;24.52;21.83;;;18.00;99.90;;;;;;5070964;28;20047;-72
2022/08/24 05:19:31;;;;;;;24.13;21.60;;;18.90;99.90;;;;;;5070818;28;20082;-73
2022/08/24 05:21:57;;;;;;;25.08;22.42;;;18.10;99.90;;;;;;5070835;28;20044;-74
2022/08/24 05:24:23;;;;;;;25.33;22.83;;;18.60;99.90;;;;;;5070792;28;20524;-72
2022/08/24 05:26:50;;;;;;;24.40;21.98;;;18.20;99.90;;;;;;5070888;28;20048;-73
2022/08/24 05:29:15;;;;;;;26.60;24.10;;;18.10;99.90;;;;;;5071690;28;20044;-72
2022/08/24 05:31:45;;;;;;;27.20;24.67;;;18.10;99.90;;;;;;5070999;28;20064;-72
2022/08/24 05:34:13;;;;;;;30.63;27.77;;;18.20;99.90;;;;;;5063111;28;20128;-72
2022/08/24 05:36:40;;;;;;;27.55;24.90;;;18.10;99.90;;;;;;5071713;28;20048;-74
2022/08/24 05:39:12;;;;;;;29.88;26.70;;;18.10;99.90;;;;;;5070540;28;20090;-72
2022/08/24 05:41:39;;;;;;;26.23;23.77;;;18.20;99.90;;;;;;5070122;28;20546;-72
2022/08/24 05:44:05;;;;;;;27.95;25.17;;;18.10;99.90;;;;;;5071853;28;20041;-73
2022/08/24 05:46:31;;;;;;;27.02;24.42;;;18.10;99.90;;;;;;5071023;28;20123;-72
2022/08/24 05:48:58;;;;;;;29.30;26.30;;;18.10;99.90;;;;;;5071318;28;20059;-74
2022/08/24 05:51:24;;;;;;;24.92;22.20;;;18.20;99.90;;;;;;5070320;28;20090;-74
2022/08/24 05:53:50;;;;;;;28.60;25.73;;;18.80;99.90;;;;;;5070597;28;20114;-75
2022/08/24 05:56:17;;;;;;;27.88;24.83;;;18.20;99.90;;;;;;5070267;28;20484;-73
2022/08/24 05:58:43;;;;;;;27.13;24.55;;;18.40;99.90;;;;;;5069861;28;20127;-76
2022/08/24 06:01:12;;;;;;;29.48;26.55;;;18.40;99.90;;;;;;5070885;28;20462;-74
2022/08/24 06:03:39;;;;;;;28.73;25.85;;;18.40;99.90;;;;;;5071385;28;20040;-74
2022/08/24 06:06:07;;;;;;;28.63;25.52;;;18.40;99.90;;;;;;5071171;28;20040;-75
2022/08/24 06:08:41;;;;;;;30.50;25.73;;;18.40;99.90;;;;;;5069010;28;20045;-76
2022/08/24 06:11:08;;;;;;;35.00;31.58;;;19.00;99.90;;;;;;5053194;28;20071;-75
2022/08/24 06:13:33;;;;;;;33.50;29.92;;;18.50;99.90;;;;;;5071474;28;20043;-72
2022/08/24 06:16:18;;;;;;;27.95;25.05;;;19.30;99.90;;;;;;5070891;28;20045;-72
2022/08/24 06:18:43;;;;;;;26.40;23.92;;;18.60;99.90;;;;;;5070839;28;20040;-74
2022/08/24 06:21:12;;;;;;;27.83;24.15;;;19.00;99.90;;;;;;5070305;28;20047;-72
2022/08/24 06:23:39;;;;;;;29.65;26.40;;;18.60;99.90;;;;;;5071255;28;20072;-75
2022/08/24 06:28:51;;;;;;;29.95;27.00;;;18.80;99.90;;;;;;5070224;28;20392;-73
2022/08/24 06:31:17;;;;;;;28.63;25.58;;;18.80;99.90;;;;;;5062897;28;20091;-74
2022/08/24 06:33:43;;;;;;;30.58;26.00;;;18.90;99.90;;;;;;5069618;28;20503;-73
2022/08/24 06:36:09;;;;;;;28.38;25.67;;;19.00;99.90;;;;;;5070304;28;20041;-72
2022/08/24 06:38:35;;;;;;;27.20;24.60;;;19.00;99.90;;;;;;5070599;28;20131;-74
2022/08/24 06:41:01;;;;;;;27.55;24.70;;;19.00;99.90;;;;;;5070009;28;20066;-73
2022/08/24 06:43:26;;;;;;;26.23;23.30;;;19.90;99.90;;;;;;5069380;28;20052;-72
2022/08/24 06:45:54;;;;;;;26.25;23.48;;;19.10;99.90;;;;;;5074939;28;20045;-75
2022/08/24 06:48:20;;;;;;;24.63;22.15;;;19.80;99.90;;;;;;5074769;28;20044;-73
2022/08/24 06:50:47;;;;;;;23.20;20.90;;;19.60;99.90;;;;;;5072863;28;20496;-72
2022/08/24 06:53:13;;;;;;;25.77;23.35;;;19.60;99.90;;;;;;5056935;28;20040;-73
2022/08/24 06:55:51;;;;;;;23.92;21.38;;;20.10;99.90;;;;;;5074897;28;20037;-72
2022/08/24 06:58:21;;;;;;;23.10;20.30;;;20.00;99.90;;;;;;5074061;28;20056;-72
2022/08/24 07:00:47;;;;;;;20.70;18.70;;;19.50;99.90;;;;;;5073180;28;20044;-72
2022/08/24 07:03:14;;;;;;;24.70;21.90;;;19.50;99.90;;;;;;5073842;28;20036;-73
2022/08/24 07:05:40;;;;;;;22.25;19.50;;;19.70;99.90;;;;;;5073643;28;20033;-72
2022/08/24 07:08:06;;;;;;;21.92;19.80;;;19.60;99.90;;;;;;5073303;28;20544;-72
2022/08/24 07:10:33;;;;;;;24.52;19.65;;;19.70;99.90;;;;;;5072478;28;20040;-72
2022/08/24 07:12:59;;;;;;;20.35;17.30;;;19.80;99.90;;;;;;5073188;28;20049;-75
2022/08/24 07:15:25;;;;;;;20.80;18.67;;;20.20;99.90;;;;;;5074430;28;20041;-74
2022/08/24 07:17:52;;;;;;;20.48;16.48;;;20.30;99.90;;;;;;5074149;28;20084;-74
2022/08/24 07:20:18;;;;;;;21.02;17.02;;;20.30;99.90;;;;;;5074065;28;20037;-72
2022/08/24 07:22:44;;;;;;;19.70;16.42;;;20.10;99.90;;;;;;5074464;28;20056;-72
2022/08/24 07:25:11;;;;;;;18.13;16.13;;;20.10;99.90;;;;;;5072083;28;20515;-72
2022/08/24 07:27:38;;;;;;;18.77;14.73;;;20.60;99.90;;;;;;5074025;28;20071;-72
2022/08/24 07:30:05;;;;;;;16.73;12.88;;;20.60;99.90;;;;;;5070126;28;20393;-73
2022/08/24 07:32:32;;;;;;;17.20;14.02;;;20.30;99.90;;;;;;5072687;28;20040;-73
2022/08/24 07:34:59;;;;;;;11.63;10.50;;;20.70;99.90;;;;;;5074255;28;20041;-72
2022/08/24 07:37:24;;;;;;;18.30;10.43;;;20.90;99.90;;;;;;5073656;28;20037;-73
2022/08/24 07:39:50;;;;;;;13.38;11.10;;;20.50;99.90;;;;;;5076733;28;20506;-74
2022/08/24 07:42:16;;;;;;;11.35;10.07;;;20.70;99.90;;;;;;5074334;28;20042;-74
2022/08/24 07:44:42;;;;;;;13.75;10.77;;;20.70;99.90;;;;;;5073290;28;20396;-74
2022/08/24 07:47:08;;;;;;;13.52;11.13;;;20.70;99.90;;;;;;5055664;28;20053;-75
2022/08/24 07:49:34;;;;;;;13.70;11.15;;;20.90;99.90;;;;;;5073561;28;20051;-75
2022/08/24 07:52:00;;;;;;;13.30;9.57;;;20.90;99.90;;;;;;5072084;28;20048;-72
2022/08/24 07:54:28;;;;;;;12.80;9.52;;;20.90;99.90;;;;;;5073811;28;20045;-73
2022/08/24 07:56:54;;;;;;;14.48;11.27;;;21.00;99.90;;;;;;5072803;28;20048;-74
2022/08/24 07:59:20;;;;;;;13.52;9.43;;;21.10;99.90;;;;;;5071429;28;20131;-73
2022/08/24 08:01:46;;;;;;;12.93;11.45;;;21.20;99.90;;;;;;5073515;28;20036;-73
2022/08/24 08:04:13;;;;;;;11.38;9.48;;;21.40;99.90;;;;;;5073337;28;20048;-72
2022/08/24 08:06:40;;;;;;;14.15;9.80;;;21.40;99.90;;;;;;5072910;28;20152;-72
2022/08/24 08:09:06;;;;;;;10.02;9.18;;;21.80;99.90;;;;;;5071794;28;20045;-73
2022/08/24 08:11:31;;;;;;;12.95;9.40;;;21.60;99.90;;;;;;5071912;28;20040;-72
2022/08/24 08:13:57;;;;;;;17.08;11.05;;;21.60;99.90;;;;;;5073148;28;20102;-76
2022/08/24 08:16:23;;;;;;;12.70;8.35;;;21.80;99.90;;;;;;5073123;28;20396;-74
2022/08/24 08:18:48;;;;;;;13.13;7.60;;;21.80;99.90;;;;;;5072137;28;20157;-74
2022/08/24 08:24:13;;;;;;;;;;;21.90;99.90;;;;;;5073885;28;20048;-72
2022/08/24 08:26:50;;;;;;;9.20;7.70;;;22.10;99.90;;;;;;5065635;28;19924;-72
2022/08/24 08:29:18;;;;;;;10.82;7.80;;;22.10;99.90;;;;;;5071240;28;20283;-71
2022/08/24 08:31:44;;;;;;;8.20;7.32;;;22.20;99.90;;;;;;5073237;28;20033;-72
2022/08/24 08:34:12;;;;;;;10.75;7.45;;;22.30;99.90;;;;;;5072018;28;20040;-72
2022/08/24 08:36:39;;;;;;;8.80;7.00;;;22.30;99.90;;;;;;5071816;28;20048;-73
2022/08/24 08:39:07;;;;;;;14.48;8.00;;;22.40;99.90;;;;;;5072346;28;20036;-72
2022/08/24 08:42:01;;;;;;;15.93;7.15;;;22.40;99.90;;;;;;5071972;28;20508;-72
2022/08/24 08:44:45;;;;;;;;;;;22.50;99.90;;;;;;5073284;28;20040;-72
2022/08/24 08:47:48;;;;;;;8.87;6.63;;;22.60;99.90;;;;;;5072054;28;19920;-72
2022/08/24 08:50:35;;;;;;;15.45;6.90;;;22.60;99.90;;;;;;5072097;28;20287;-72
2022/08/24 08:53:31;;;;;;;12.65;6.50;;;22.70;99.90;;;;;;5072440;28;20550;-73
2022/08/24 08:56:14;;;;;;;7.75;5.78;;;22.70;99.90;;;;;;5067414;28;20144;-73
2022/08/24 08:59:01;;;;;;;8.75;6.10;;;22.80;99.90;;;;;;5065033;28;20045;-73
2022/08/24 09:01:48;;;;;;;19.63;15.07;;;22.90;99.90;;;;;;5071868;28;20032;-74
2022/08/24 09:04:16;;;;;;;11.77;6.40;;;22.90;99.90;;;;;;5073565;28;20036;-72
2022/08/24 09:07:07;;;;;;;7.32;5.20;;;23.00;99.90;;;;;;5071797;28;20024;-72
2022/08/24 09:09:53;;;;;;;8.60;5.07;;;23.10;99.90;;;;;;5063557;28;20040;-73
2022/08/24 09:12:50;;;;;;;7.15;4.03;;;23.30;99.90;;;;;;5072234;28;20048;-72
2022/08/24 09:15:35;;;;;;;9.57;5.00;;;23.30;99.90;;;;;;5071530;28;20044;-72
2022/08/24 09:18:26;;;;;;;8.63;3.67;;;23.40;99.90;;;;;;5071970;28;20492;-72
2022/08/24 09:21:00;;;;;;;8.43;3.22;;;23.60;99.90;;;;;;5066441;28;20036;-72
2022/08/24 09:24:10;;;;;;;9.77;3.85;;;23.50;99.90;;;;;;5053823;28;20511;-73
2022/08/24 09:26:50;;;;;;;12.95;6.22;;;23.70;99.90;;;;;;5063794;28;20086;-73
2022/08/24 09:29:53;;;;;;;9.27;4.82;;;23.80;99.90;;;;;;5069476;28;20049;-73
2022/08/24 09:32:43;;;;;;;4.43;3.53;;;23.90;99.90;;;;;;5070525;28;20048;-73
2022/08/24 09:35:30;;;;;;;6.00;2.63;;;24.00;99.90;;;;;;5071890;28;20043;-74
2022/08/24 09:38:01;;;;;;;5.28;2.45;;;24.10;99.90;;;;;;5047938;28;20048;-75
2022/08/24 09:40:59;;;;;;;4.95;2.40;;;24.10;99.90;;;;;;5071189;28;20052;-72
2022/08/24 09:43:58;;;;;;;7.47;2.97;;;24.20;99.90;;;;;;5065478;28;20048;-72
2022/08/24 09:47:14;;;;;;;8.68;2.70;;;24.40;99.90;;;;;;5071456;28;20040;-74
2022/08/24 09:49:39;;;;;;;3.97;2.38;;;24.40;99.90;;;;;;5063256;28;20040;-74
2022/08/24 09:52:26;;;;;;;4.65;2.17;;;24.60;99.90;;;;;;5070975;28;20040;-75
2022/08/24 09:55:14;;;;;;;3.65;2.60;;;24.60;99.90;;;;;;5064123;28;20037;-73
2022/08/24 09:58:10;;;;;;;4.10;2.30;;;24.70;99.90;;;;;;5061801;28;20040;-73
2022/08/24 10:01:01;;;;;;;3.67;1.75;;;24.70;99.90;;;;;;5070904;28;20044;-74
2022/08/24 10:03:56;;;;;;;3.13;1.65;;;24.80;99.90;;;;;;5071370;28;20136;-74
2022/08/24 10:06:48;;;;;;;5.95;1.92;;;24.90;99.90;;;;;;5070648;28;20400;-74
2022/08/24 10:09:26;;;;;;;3.08;2.00;;;25.00;99.90;;;;;;5070882;28;20051;-73
2022/08/24 10:12:05;;;;;;;5.10;1.90;;;25.10;99.90;;;;;;5062647;28;20044;-74
2022/08/24 10:14:48;;;;;;;2.55;1.80;;;25.20;99.90;;;;;;5071011;28;20063;-74
2022/08/24 10:17:47;;;;;;;6.18;2.15;;;25.30;99.90;;;;;;5070032;28;20245;-73
2022/08/24 10:20:24;;;;;;;6.80;2.30;;;25.30;99.90;;;;;;5065082;28;20042;-75
2022/08/24 10:23:23;;;;;;;7.90;2.30;;;25.30;99.90;;;;;;5063008;28;20051;-72
2022/08/24 10:26:19;;;;;;;3.45;2.08;;;25.30;99.90;;;;;;5063656;28;20044;-73
2022/08/24 10:29:16;;;;;;;9.25;2.53;;;25.40;99.90;;;;;;5065724;28;20427;-72
2022/08/24 10:32:05;;;;;;;3.28;1.73;;;25.50;99.90;;;;;;5062962;28;20060;-77
2022/08/24 10:34:45;;;;;;;6.28;2.38;;;25.70;99.90;;;;;;5070242;28;20057;-75
2022/08/24 10:37:29;;;;;;;2.85;1.75;;;25.90;99.90;;;;;;5069858;28;20123;-75
2022/08/24 10:40:38;;;;;;;4.70;2.05;;;25.80;99.90;;;;;;5063521;28;20036;-76
2022/08/24 10:46:28;;;;;;;3.55;1.95;;;26.00;99.90;;;;;;5014239;28;20041;-73
2022/08/24 10:49:36;;;;;;;4.55;1.83;;;26.20;99.90;;;;;;5056153;28;20450;-71
2022/08/24 10:52:36;;;;;;;2.95;1.80;;;26.20;99.90;;;;;;5064794;28;20043;-73
2022/08/24 10:55:21;;;;;;;4.55;1.10;;;26.30;99.90;;;;;;5064284;28;20384;-74
2022/08/24 10:58:18;;;;;;;2.60;1.50;;;26.40;99.90;;;;;;5061707;28;20044;-74
2022/08/24 11:00:44;;;;;;;3.58;1.23;;;26.50;99.90;;;;;;5069844;28;20469;-72
2022/08/24 11:03:13;;;;;;;3.90;1.63;;;26.60;99.90;;;;;;5070711;28;20112;-74
2022/08/24 11:05:46;;;;;;;3.25;1.38;;;26.70;99.90;;;;;;5070595;28;20475;-72
2022/08/24 11:08:19;;;;;;;3.72;2.50;;;26.70;99.90;;;;;;5070154;28;20043;-72
2022/08/24 11:11:00;;;;;;;2.03;1.40;;;26.70;99.90;;;;;;5069251;28;20036;-73
2022/08/24 11:13:26;;;;;;;4.97;2.42;;;26.60;99.90;;;;;;5070157;28;20496;-73
2022/08/24 11:15:55;;;;;;;1.95;0.90;;;26.50;99.90;;;;;;5069804;28;20036;-73
2022/08/24 11:18:21;;;;;;;3.38;1.48;;;26.50;99.90;;;;;;5070434;28;20274;-73
2022/08/24 11:20:51;;;;;;;2.58;1.40;;;26.70;99.90;;;;;;5062381;28;20094;-73
2022/08/24 11:23:24;;;;;;;2.53;0.98;;;26.80;99.90;;;;;;5069747;28;20444;-74
2022/08/24 11:26:18;;;;;;;2.42;0.80;;;26.80;99.90;;;;;;5062840;28;20056;-73
2022/08/24 11:28:49;;;;;;;1.40;0.80;;;26.70;99.90;;;;;;5051260;28;20056;-73
2022/08/24 11:31:30;;;;;;;2.90;0.98;;;26.80;99.90;;;;;;5070773;28;20094;-74
2022/08/24 11:34:06;;;;;;;3.17;0.82;;;27.00;99.90;;;;;;5065641;28;20048;-73
2022/08/24 11:36:35;;;;;;;1.95;1.75;;;27.20;99.90;;;;;;5073426;28;20044;-73
2022/08/24 11:39:28;;;;;;;3.00;1.95;;;27.40;99.90;;;;;;5056089;28;20591;-73
2022/08/24 11:42:05;;;;;;;1.38;0.55;;;27.60;99.90;;;;;;5066190;28;20515;-72
2022/08/24 11:44:40;;;;;;;2.40;1.08;;;27.70;99.90;;;;;;5071859;28;20080;-72
2022/08/24 11:47:38;;;;;;;2.78;0.90;;;27.70;99.90;;;;;;5074155;28;20037;-72
2022/08/24 11:50:32;;;;;;;2.13;1.05;;;27.70;99.90;;;;;;5065682;28;20525;-73
2022/08/24 11:53:16;;;;;;;1.08;0.85;;;27.60;99.90;;;;;;5066538;28;20397;-73
2022/08/24 11:56:14;;;;;;;1.25;0.70;;;27.50;99.90;;;;;;5073769;28;20114;-76
2022/08/24 11:58:52;;;;;;;2.30;0.75;;;27.20;99.90;;;;;;5072665;28;20036;-74
2022/08/24 12:01:34;;;;;;;3.25;0.90;;;27.30;99.90;;;;;;5072417;28;20124;-74
2022/08/24 12:04:37;;;;;;;1.05;0.70;;;27.40;99.90;;;;;;5065773;28;20403;-74
2022/08/24 12:07:08;;;;;;;0.50;0.40;;;27.60;99.90;;;;;;5066968;28;20044;-73
2022/08/24 12:09:48;;;;;;;5.13;0.90;;;27.90;99.90;;;;;;5071840;28;20044;-73
2022/08/24 12:12:18;;;;;;;1.23;0.63;;;28.10;99.90;;;;;;5071720;28;20365;-73
2022/08/24 12:15:04;;;;;;;0.60;0.40;;;28.30;99.90;;;;;;5073380;28;20058;-74
2022/08/24 12:17:37;;;;;;;0.80;0.47;;;28.40;99.90;;;;;;5073425;28;20151;-72
2022/08/24 12:20:26;;;;;;;5.28;0.68;;;28.50;99.90;;;;;;5072232;28;20115;-73
2022/08/24 12:22:56;;;;;;;1.55;0.40;;;28.50;99.90;;;;;;5073117;28;20040;-74
2022/08/24 12:28:47;;;;;;;1.23;0.30;;;28.40;99.90;;;;;;5046250;28;20421;-75
2022/08/24 12:31:28;;;;;;;2.92;0.50;;;28.40;99.90;;;;;;5044594;28;20436;-76
2022/08/24 12:33:59;;;;;;;2.78;0.52;;;28.30;99.90;;;;;;5057272;28;20136;-76
2022/08/24 12:36:32;;;;;;;0.70;0.52;;;28.20;99.90;;;;;;5055029;28;20123;-73
2022/08/24 12:39:26;;;;;;;1.75;0.43;;;28.10;99.90;;;;;;5064013;28;20040;-73
2022/08/24 12:42:12;;;;;;;;;;;28.10;99.90;;;;;;5070259;28;20123;-73
2022/08/24 12:44:48;;;;;;;3.50;0.68;;;28.00;99.90;;;;;;5072871;28;19975;-77
2022/08/24 12:48:00;;;;;;;1.95;0.40;;;28.00;99.90;;;;;;5070854;28;20083;-76
2022/08/24 12:50:41;;;;;;;2.05;0.40;;;27.90;99.90;;;;;;5054123;28;20056;-76
2022/08/24 12:53:36;;;;;;;1.05;0.60;;;28.00;99.90;;;;;;5063985;28;20051;-77
2022/08/24 12:56:10;;;;;;;3.33;0.50;;;27.90;99.90;;;;;;5065058;28;20024;-76
2022/08/24 12:58:53;;;;;;;2.35;0.55;;;27.80;99.90;;;;;;5072060;28;20461;-76
2022/08/24 13:01:21;;;;;;;0.80;0.68;;;27.80;99.90;;;;;;5071830;28;20032;-73
2022/08/24 13:04:02;;;;;;;2.05;0.52;;;27.70;99.90;;;;;;5071072;28;20049;-74
2022/08/24 13:06:40;;;;;;;0.88;0.43;;;27.70;99.90;;;;;;5072403;28;20123;-75
2022/08/24 13:09:25;;;;;;;1.75;0.40;;;27.70;99.90;;;;;;5063902;28;20040;-74
2022/08/24 13:11:51;;;;;;;4.22;0.57;;;27.60;99.90;;;;;;5072811;28;20092;-75
2022/08/24 13:14:20;;;;;;;5.72;0.73;;;27.60;99.90;;;;;;5072580;28;20496;-77
2022/08/24 13:16:49;;;;;;;0.77;0.73;;;27.60;99.90;;;;;;5072561;28;20083;-75
2022/08/24 13:19:37;;;;;;;1.15;0.65;;;27.50;99.90;;;;;;5071809;28;20070;-77